Time;durP1;ratioP1;P1;durP2;ratioP2;P2;SDS_P1;SDS_P2;PMS_P1;PMS_P2;Temp;Humidity;BMP_temperature;BMP_pressure;BME280_temperature;BME280_humidity;BME280_pressure;Samples;Min_cycle;Max_cycle;Signal;HPM_P1;HPM_P2
2021/05/06 00:01:59;;;;;;;3.60;1.40;;;12.50;54.00;;;;;;5035152;28;20032;-90
2021/05/06 00:33:49;;;;;;;3.15;1.63;;;12.50;54.10;;;;;;5034700;28;20476;-91
2021/05/06 00:36:15;;;;;;;2.63;1.90;;;12.50;54.20;;;;;;5034028;28;20037;-90
2021/05/06 00:38:48;;;;;;;3.28;1.80;;;12.50;54.20;;;;;;5034878;28;20419;-92
2021/05/06 00:55:00;;;;;;;2.42;1.60;;;12.40;54.60;;;;;;5035729;28;20486;-91
2021/05/06 00:57:36;;;;;;;1.98;1.23;;;12.40;54.70;;;;;;5017132;28;20025;-92
2021/05/06 01:00:20;;;;;;;2.17;1.60;;;12.40;54.80;;;;;;5035307;28;20032;-92
2021/05/06 01:05:32;;;;;;;3.45;2.00;;;12.40;54.90;;;;;;5038190;28;20029;-91
2021/05/06 01:08:02;;;;;;;3.00;1.70;;;12.40;55.00;;;;;;5026105;28;20064;-92
2021/05/06 01:10:43;;;;;;;2.85;1.70;;;12.40;55.20;;;;;;5049182;28;20022;-91
2021/05/06 01:13:11;;;;;;;2.65;1.85;;;12.40;55.40;;;;;;5029620;28;20034;-90
2021/05/06 01:15:37;;;;;;;2.60;1.58;;;12.40;55.60;;;;;;5038506;28;20148;-92
2021/05/06 01:18:02;;;;;;;2.05;1.60;;;12.40;55.80;;;;;;5035051;28;20095;-92
2021/05/06 01:20:28;;;;;;;1.55;1.38;;;12.40;56.00;;;;;;5034745;28;20034;-90
2021/05/06 01:22:54;;;;;;;1.95;1.50;;;12.30;56.00;;;;;;5034174;28;20472;-91
2021/05/06 01:25:20;;;;;;;2.17;1.80;;;12.30;56.10;;;;;;5016886;28;20029;-91
2021/05/06 01:27:58;;;;;;;2.22;1.75;;;12.30;56.40;;;;;;5034117;28;20077;-90
2021/05/06 01:32:59;;;;;;;2.05;1.70;;;12.30;56.70;;;;;;5034808;28;20060;-92
2021/05/06 01:35:39;;;;;;;2.53;1.70;;;12.30;56.90;;;;;;5034731;28;20025;-93
2021/05/06 01:43:44;;;;;;;3.53;2.00;;;12.20;58.00;;;;;;5034148;28;20037;-92
2021/05/06 01:49:32;;;;;;;3.03;2.20;;;12.10;59.10;;;;;;5015192;28;20133;-94
2021/05/06 01:58:01;;;;;;;2.47;2.00;;;11.90;60.60;;;;;;5034235;28;20486;-91
2021/05/06 02:00:33;;;;;;;3.20;1.80;;;11.90;61.10;;;;;;5033646;28;20018;-91
2021/05/06 02:03:00;;;;;;;2.08;1.65;;;11.80;61.30;;;;;;5034139;28;20033;-92
2021/05/06 02:05:26;;;;;;;2.97;1.67;;;11.80;61.40;;;;;;5033744;28;20033;-93
2021/05/06 02:07:53;;;;;;;2.42;1.67;;;11.80;61.40;;;;;;5015859;28;20033;-92
2021/05/06 02:10:22;;;;;;;2.90;1.70;;;11.80;61.60;;;;;;5037224;28;20049;-91
2021/05/06 02:12:48;;;;;;;2.40;1.90;;;11.80;62.00;;;;;;5037328;28;20037;-92
2021/05/06 02:15:18;;;;;;;3.25;2.00;;;11.80;62.40;;;;;;5019599;28;20029;-91
2021/05/06 02:17:45;;;;;;;2.67;2.10;;;11.80;62.40;;;;;;5019124;28;20037;-90
2021/05/06 02:20:12;;;;;;;2.45;1.70;;;11.80;62.60;;;;;;5036988;28;20029;-90
2021/05/06 02:22:38;;;;;;;4.00;2.10;;;11.80;62.80;;;;;;5019234;28;20364;-91
2021/05/06 02:25:05;;;;;;;5.85;2.05;;;11.70;63.20;;;;;;5037168;28;20029;-92
2021/05/06 02:27:31;;;;;;;4.15;2.13;;;11.70;63.60;;;;;;5015161;28;20050;-92
2021/05/06 02:29:58;;;;;;;3.10;1.70;;;11.70;64.00;;;;;;5017367;28;20026;-92
2021/05/06 02:32:24;;;;;;;4.75;2.17;;;11.70;63.80;;;;;;5016905;28;20069;-91
2021/05/06 02:34:50;;;;;;;5.15;2.05;;;11.70;64.00;;;;;;5015405;28;20054;-90
2021/05/06 02:37:15;;;;;;;3.03;1.88;;;11.70;63.90;;;;;;5016789;28;20431;-92
2021/05/06 02:39:44;;;;;;;3.13;2.13;;;11.70;63.90;;;;;;5015317;28;20026;-91
2021/05/06 02:42:10;;;;;;;3.90;2.03;;;11.70;64.10;;;;;;5019428;28;20154;-91
2021/05/06 02:44:36;;;;;;;3.00;1.95;;;11.70;64.00;;;;;;5016912;28;20575;-92
2021/05/06 02:47:03;;;;;;;3.83;2.25;;;11.70;64.20;;;;;;5016126;28;20041;-93
2021/05/06 02:49:29;;;;;;;3.10;1.75;;;11.70;63.80;;;;;;5016880;28;20029;-91
2021/05/06 02:52:02;;;;;;;2.55;2.10;;;11.70;63.80;;;;;;5016239;28;20026;-91
2021/05/06 02:54:34;;;;;;;2.95;1.98;;;11.80;63.70;;;;;;5016502;28;20099;-92
2021/05/06 03:05:08;;;;;;;3.50;2.20;;;11.80;63.40;;;;;;5017345;28;20033;-94
2021/05/06 03:07:35;;;;;;;3.13;1.95;;;11.80;63.30;;;;;;5018331;28;20038;-93
2021/05/06 03:10:19;;;;;;;3.38;2.05;;;11.80;63.20;;;;;;5040445;28;20016;-92
2021/05/06 03:23:29;;;;;;;2.92;1.98;;;12.00;62.30;;;;;;5017859;28;20026;-95
2021/05/06 03:25:57;;;;;;;5.35;2.30;;;12.00;62.20;;;;;;5021856;28;20059;-96
2021/05/06 03:28:26;;;;;;;3.30;2.05;;;12.00;62.40;;;;;;5020966;28;20428;-95
2021/05/06 03:31:13;;;;;;;3.35;1.83;;;11.90;62.20;;;;;;5038475;28;20367;-95
2021/05/06 03:42:14;;;;;;;3.03;1.90;;;12.00;62.30;;;;;;5042050;28;20067;-96
2021/05/06 04:30:07;;;;;;;5.10;2.58;;;12.80;61.80;;;;;;5041732;28;20049;-93
2021/05/06 04:35:38;;;;;;;3.55;2.00;;;12.90;61.40;;;;;;5038469;28;20029;-96
2021/05/06 04:38:11;;;;;;;3.35;2.40;;;12.90;61.30;;;;;;5019867;28;20164;-93
2021/05/06 05:25:07;;;;;;;4.72;2.13;;;14.10;56.40;;;;;;5033636;28;20052;-92
2021/05/06 05:27:34;;;;;;;6.15;2.05;;;14.00;56.40;;;;;;5026641;28;20057;-95
2021/05/06 05:30:00;;;;;;;4.43;2.10;;;14.00;56.40;;;;;;5028444;28;20037;-93
2021/05/06 05:32:29;;;;;;;5.85;2.20;;;14.00;56.30;;;;;;5019025;28;20480;-93
2021/05/06 05:37:23;;;;;;;4.80;2.10;;;14.10;56.10;;;;;;5034868;28;20376;-93
2021/05/06 05:42:40;;;;;;;3.95;2.10;;;14.20;55.70;;;;;;5036407;28;20355;-95
2021/05/06 05:55:56;;;;;;;5.10;2.05;;;14.60;55.10;;;;;;5037231;28;20086;-89
2021/05/06 05:58:22;;;;;;;3.10;2.00;;;14.70;54.70;;;;;;5018270;28;20040;-89
2021/05/06 06:00:48;;;;;;;4.82;1.90;;;14.70;54.60;;;;;;5037006;28;20029;-91
2021/05/06 06:03:13;;;;;;;4.28;1.67;;;14.70;54.40;;;;;;5017592;28;20464;-90
2021/05/06 06:05:39;;;;;;;4.30;1.77;;;14.80;54.40;;;;;;5035595;28;20032;-93
2021/05/06 06:08:06;;;;;;;4.18;2.00;;;15.00;54.00;;;;;;5017384;28;20034;-89
2021/05/06 06:10:32;;;;;;;3.30;1.75;;;15.20;53.70;;;;;;5017059;28;20387;-90
2021/05/06 06:12:58;;;;;;;5.88;1.95;;;15.40;52.80;;;;;;5016210;28;20017;-91
2021/05/06 06:15:38;;;;;;;6.50;2.10;;;15.50;52.30;;;;;;5035166;28;20026;-88
2021/05/06 06:18:24;;;;;;;3.93;1.80;;;15.50;51.90;;;;;;5016924;28;20033;-89
2021/05/06 06:21:00;;;;;;;3.78;2.10;;;15.50;52.00;;;;;;5016980;28;20360;-88
2021/05/06 06:23:27;;;;;;;4.57;2.03;;;15.40;52.10;;;;;;5034510;28;20017;-88
2021/05/06 06:25:53;;;;;;;4.80;1.98;;;15.40;52.50;;;;;;5017720;28;20103;-89
2021/05/06 06:28:19;;;;;;;4.50;1.60;;;15.30;52.50;;;;;;5036452;28;20033;-89
2021/05/06 06:30:45;;;;;;;3.40;1.80;;;15.30;52.40;;;;;;5036565;28;20029;-89
2021/05/06 06:33:11;;;;;;;3.58;1.80;;;15.30;52.20;;;;;;5019322;28;20430;-88
2021/05/06 06:35:36;;;;;;;3.08;2.00;;;15.30;52.20;;;;;;5037002;28;20452;-91
2021/05/06 06:38:02;;;;;;;3.53;2.00;;;15.30;52.20;;;;;;5037158;28;20460;-89
2021/05/06 06:40:28;;;;;;;3.17;1.98;;;15.30;51.90;;;;;;5036700;28;20018;-90
2021/05/06 06:42:54;;;;;;;2.83;1.70;;;15.40;51.70;;;;;;5017995;28;20489;-90
2021/05/06 06:45:20;;;;;;;3.20;1.88;;;15.30;51.40;;;;;;5019685;28;20033;-90
2021/05/06 06:47:53;;;;;;;4.22;1.63;;;15.30;50.80;;;;;;5025294;28;20034;-90
2021/05/06 06:50:19;;;;;;;3.75;1.55;;;15.30;50.90;;;;;;5044176;28;20025;-87
2021/05/06 06:52:45;;;;;;;2.20;1.55;;;15.30;51.00;;;;;;5046395;28;20045;-92
2021/05/06 06:55:11;;;;;;;4.47;1.70;;;15.30;51.00;;;;;;5027512;28;20383;-90
2021/05/06 06:57:36;;;;;;;3.28;1.77;;;15.20;51.20;;;;;;5019119;28;20132;-89
2021/05/06 07:00:04;;;;;;;3.55;2.08;;;15.20;51.20;;;;;;5019391;28;20108;-90
2021/05/06 07:02:30;;;;;;;5.00;1.90;;;15.20;51.30;;;;;;5021458;28;20026;-91
2021/05/06 07:04:55;;;;;;;2.72;1.70;;;15.20;51.20;;;;;;5019412;28;20057;-92
2021/05/06 07:07:21;;;;;;;3.67;1.55;;;15.20;51.30;;;;;;5018242;28;20133;-90
2021/05/06 07:09:47;;;;;;;3.95;1.80;;;15.20;51.40;;;;;;5036782;28;20417;-92
2021/05/06 07:12:12;;;;;;;3.28;1.80;;;15.20;51.70;;;;;;5036815;28;20095;-91
2021/05/06 07:14:38;;;;;;;4.50;2.03;;;15.20;52.00;;;;;;5018463;28;20061;-90
2021/05/06 07:17:04;;;;;;;5.72;1.83;;;15.20;52.20;;;;;;5018592;28;20037;-91
2021/05/06 07:19:30;;;;;;;3.90;2.10;;;15.10;52.60;;;;;;5018369;28;20057;-91
2021/05/06 07:21:56;;;;;;;3.88;2.35;;;15.10;53.40;;;;;;5035620;28;20022;-91
2021/05/06 07:24:22;;;;;;;3.38;2.03;;;15.00;54.00;;;;;;5017743;28;20116;-91
2021/05/06 07:26:48;;;;;;;5.70;2.40;;;14.90;54.80;;;;;;5017403;28;20095;-92
2021/05/06 07:29:20;;;;;;;5.40;2.28;;;14.90;56.10;;;;;;5017622;28;20033;-91
2021/05/06 07:31:47;;;;;;;3.80;2.28;;;14.80;57.40;;;;;;5018489;28;20091;-92
2021/05/06 07:34:13;;;;;;;4.82;2.08;;;14.70;57.90;;;;;;5022383;28;20025;-90
2021/05/06 07:36:39;;;;;;;3.78;2.47;;;14.80;58.90;;;;;;5035167;28;20021;-90
2021/05/06 07:39:05;;;;;;;3.85;2.40;;;14.80;59.10;;;;;;5035526;28;20095;-90
2021/05/06 07:41:31;;;;;;;4.72;2.80;;;14.90;59.20;;;;;;5035382;28;20029;-91
2021/05/06 07:43:58;;;;;;;3.50;2.08;;;15.00;58.90;;;;;;5035524;28;20031;-91
2021/05/06 07:46:24;;;;;;;3.25;2.13;;;15.10;58.50;;;;;;5035940;28;20029;-90
2021/05/06 07:48:54;;;;;;;3.30;2.03;;;15.00;58.70;;;;;;5017671;28;20083;-91
2021/05/06 07:51:20;;;;;;;6.50;3.00;;;14.90;59.20;;;;;;5035248;28;20026;-89
2021/05/06 07:53:51;;;;;;;4.53;2.53;;;14.80;59.60;;;;;;5034679;28;20022;-90
2021/05/06 07:56:17;;;;;;;3.35;2.20;;;14.70;59.90;;;;;;5017320;28;20041;-91
2021/05/06 07:58:43;;;;;;;3.30;2.05;;;14.70;60.40;;;;;;5017185;28;20488;-92
2021/05/06 08:01:09;;;;;;;3.95;2.13;;;14.70;60.70;;;;;;5035145;28;20376;-90
2021/05/06 08:03:36;;;;;;;3.25;2.40;;;14.80;60.80;;;;;;5017297;28;20025;-89
2021/05/06 08:06:02;;;;;;;5.28;2.40;;;14.90;60.70;;;;;;5035147;28;20028;-91
2021/05/06 08:08:28;;;;;;;2.53;2.00;;;15.00;60.60;;;;;;5035190;28;20029;-91
2021/05/06 08:10:56;;;;;;;5.15;2.30;;;15.10;60.30;;;;;;5016907;28;20472;-90
2021/05/06 08:13:23;;;;;;;6.85;2.50;;;15.10;60.00;;;;;;5019338;28;20032;-91
2021/05/06 08:15:52;;;;;;;4.15;2.40;;;15.20;60.30;;;;;;5038375;28;20026;-92
2021/05/06 08:18:18;;;;;;;3.30;2.10;;;15.20;59.70;;;;;;5021025;28;20079;-93
2021/05/06 08:20:44;;;;;;;4.65;2.20;;;15.20;59.40;;;;;;5039124;28;20052;-92
2021/05/06 08:23:11;;;;;;;5.32;2.40;;;15.10;59.40;;;;;;5036024;28;20104;-89
2021/05/06 08:25:38;;;;;;;5.43;2.13;;;15.10;59.80;;;;;;5035157;28;20045;-90
2021/05/06 08:28:05;;;;;;;4.63;2.10;;;15.20;60.20;;;;;;5016736;28;20134;-91
2021/05/06 08:30:33;;;;;;;4.70;2.33;;;15.40;61.20;;;;;;5016676;28;20030;-90
2021/05/06 08:32:59;;;;;;;5.07;2.42;;;15.90;61.20;;;;;;5035016;28;20026;-90
2021/05/06 08:35:24;;;;;;;3.45;2.30;;;16.20;59.30;;;;;;5017720;28;20025;-89
2021/05/06 08:37:50;;;;;;;3.13;1.90;;;16.50;59.10;;;;;;5034450;28;20529;-89
2021/05/06 08:40:16;;;;;;;3.72;1.90;;;17.00;59.90;;;;;;5016667;28;20478;-89
2021/05/06 08:42:42;;;;;;;3.63;2.40;;;17.50;59.30;;;;;;5034344;28;20028;-90
2021/05/06 08:45:08;;;;;;;5.72;2.20;;;18.00;57.00;;;;;;5016287;28;20021;-90
2021/05/06 08:47:34;;;;;;;2.92;1.83;;;18.20;54.90;;;;;;5016240;28;20071;-90
2021/05/06 08:50:01;;;;;;;4.45;2.03;;;18.00;54.30;;;;;;5016118;28;20048;-89
2021/05/06 08:52:27;;;;;;;3.95;2.20;;;17.60;54.70;;;;;;5034056;28;20104;-90
2021/05/06 08:54:55;;;;;;;3.33;2.10;;;17.20;55.40;;;;;;5016308;28;20048;-92
2021/05/06 08:57:23;;;;;;;4.72;2.35;;;16.80;56.30;;;;;;5034192;28;20083;-88
2021/05/06 08:59:49;;;;;;;5.10;2.38;;;16.60;57.40;;;;;;5033918;28;20029;-89
2021/05/06 09:02:16;;;;;;;2.67;2.00;;;16.80;59.10;;;;;;5033878;28;20097;-89
2021/05/06 09:04:42;;;;;;;4.47;2.28;;;17.20;59.70;;;;;;5015859;28;20033;-90
2021/05/06 09:07:10;;;;;;;4.32;2.63;;;17.80;58.40;;;;;;5016173;28;20034;-89
2021/05/06 09:09:41;;;;;;;5.45;2.25;;;18.10;56.90;;;;;;5035394;28;20118;-90
2021/05/06 09:12:07;;;;;;;5.30;2.38;;;18.40;56.90;;;;;;5016195;28;20025;-90
2021/05/06 09:14:43;;;;;;;6.13;2.40;;;18.80;57.10;;;;;;5033450;28;20391;-90
2021/05/06 09:17:25;;;;;;;3.22;2.10;;;19.40;54.20;;;;;;5015904;28;20034;-89
2021/05/06 09:20:08;;;;;;;3.22;2.20;;;19.60;53.50;;;;;;5018564;28;20103;-89
2021/05/06 09:22:41;;;;;;;3.75;2.38;;;19.80;53.70;;;;;;5037558;28;20108;-89
2021/05/06 09:25:26;;;;;;;4.30;2.20;;;19.80;53.50;;;;;;5038052;28;20026;-90
2021/05/06 09:28:10;;;;;;;4.90;2.30;;;19.90;52.70;;;;;;5019244;28;20091;-89
2021/05/06 09:30:39;;;;;;;3.67;2.13;;;19.70;51.90;;;;;;5020186;28;20030;-89
2021/05/06 09:33:08;;;;;;;4.65;2.45;;;19.20;52.30;;;;;;5019918;28;20032;-89
2021/05/06 09:35:51;;;;;;;3.25;2.15;;;18.70;53.10;;;;;;5019822;28;20032;-90
2021/05/06 09:38:36;;;;;;;3.25;2.03;;;18.20;53.80;;;;;;5020207;28;20533;-88
2021/05/06 09:41:05;;;;;;;3.50;2.17;;;17.80;55.30;;;;;;5037684;28;20022;-89
2021/05/06 09:43:40;;;;;;;4.45;2.35;;;17.30;55.70;;;;;;5037211;28;20057;-88
2021/05/06 09:46:37;;;;;;;4.43;2.30;;;17.00;56.70;;;;;;5037190;28;20026;-89
2021/05/06 09:49:06;;;;;;;5.00;2.33;;;16.60;57.70;;;;;;5037544;28;20029;-90
2021/05/06 09:51:55;;;;;;;3.75;2.22;;;16.30;58.20;;;;;;5037211;28;20061;-89
2021/05/06 09:54:21;;;;;;;4.35;2.42;;;16.10;60.30;;;;;;5037886;28;20530;-89
2021/05/06 09:56:59;;;;;;;3.92;2.20;;;15.90;60.00;;;;;;5038322;28;20053;-90
2021/05/06 09:59:28;;;;;;;3.88;2.20;;;15.60;61.60;;;;;;5022432;28;20029;-88
2021/05/06 10:02:05;;;;;;;5.15;2.35;;;15.50;60.70;;;;;;5026996;28;20030;-89
2021/05/06 10:04:31;;;;;;;3.25;2.05;;;15.40;62.50;;;;;;5021722;28;20052;-89
2021/05/06 10:07:17;;;;;;;5.22;2.60;;;15.10;63.60;;;;;;5037653;28;20371;-89
2021/05/06 10:09:56;;;;;;;4.55;2.50;;;14.90;66.30;;;;;;5039053;28;20049;-90
2021/05/06 10:12:27;;;;;;;5.28;3.00;;;14.70;65.60;;;;;;5019677;28;20112;-89
2021/05/06 10:14:56;;;;;;;;;;;14.60;67.00;;;;;;5023082;28;20045;-93
2021/05/06 10:17:23;;;;;;;4.80;3.00;;;14.40;67.90;;;;;;5022069;28;20011;-93
2021/05/06 10:19:49;;;;;;;7.85;2.95;;;14.40;67.90;;;;;;5024745;28;20475;-95
2021/05/06 10:22:20;;;;;;;5.13;2.70;;;14.40;68.30;;;;;;5052323;28;20095;-91
2021/05/06 10:24:50;;;;;;;4.57;2.90;;;14.50;68.70;;;;;;5034444;28;20055;-95
2021/05/06 10:27:18;;;;;;;5.57;2.75;;;14.60;68.80;;;;;;5028473;28;20450;-96
2021/05/06 10:29:44;;;;;;;6.05;2.75;;;14.70;68.50;;;;;;5021054;28;20061;-93
2021/05/06 10:32:12;;;;;;;5.22;2.63;;;14.80;68.40;;;;;;5014433;28;20029;-93
2021/05/06 10:34:40;;;;;;;4.28;2.55;;;14.90;68.10;;;;;;5012079;28;20030;-93
2021/05/06 10:37:07;;;;;;;5.00;2.90;;;15.00;67.80;;;;;;5028768;28;20085;-94
2021/05/06 10:39:41;;;;;;;4.88;3.08;;;15.00;68.30;;;;;;5008802;28;20029;-92
2021/05/06 10:42:27;;;;;;;6.97;3.50;;;15.00;68.60;;;;;;5013502;28;20048;-94
2021/05/06 10:44:55;;;;;;;4.63;2.90;;;14.90;68.70;;;;;;5012300;28;20034;-94
2021/05/06 10:47:43;;;;;;;3.40;2.47;;;14.80;68.30;;;;;;5028533;28;20060;-95
2021/05/06 10:50:25;;;;;;;5.75;3.28;;;14.80;69.80;;;;;;5009525;28;20112;-94
2021/05/06 10:52:55;;;;;;;6.05;2.70;;;14.70;69.60;;;;;;5008487;28;20050;-96
2021/05/06 10:56:02;;;;;;;4.03;2.70;;;14.70;68.90;;;;;;5027635;28;20025;-92
2021/05/06 10:58:33;;;;;;;7.63;2.88;;;14.70;69.70;;;;;;4947225;29;20050;-95
2021/05/06 11:01:01;;;;;;;5.38;3.00;;;14.70;69.30;;;;;;4925674;29;20126;-94
2021/05/06 11:03:28;;;;;;;5.68;3.10;;;14.80;69.80;;;;;;4974178;28;20026;-96
2021/05/06 11:05:56;;;;;;;5.85;3.00;;;14.80;70.00;;;;;;5012770;28;20655;-94
2021/05/06 11:08:22;;;;;;;4.90;2.60;;;14.80;70.10;;;;;;5011820;28;20032;-96
2021/05/06 11:10:48;;;;;;;4.05;2.65;;;14.80;69.90;;;;;;5027384;28;20021;-96
2021/05/06 11:13:21;;;;;;;5.80;2.53;;;14.90;70.20;;;;;;5033403;28;20089;-94
2021/05/06 11:15:47;;;;;;;3.50;2.42;;;15.00;70.50;;;;;;5012153;28;20029;-95
2021/05/06 11:18:40;;;;;;;4.40;2.42;;;15.10;70.60;;;;;;5008865;28;20022;-94
2021/05/06 11:21:08;;;;;;;5.60;2.60;;;15.30;71.20;;;;;;5012189;28;20025;-93
2021/05/06 11:23:36;;;;;;;4.68;2.83;;;15.40;70.60;;;;;;5027786;28;20358;-95
2021/05/06 11:26:11;;;;;;;3.80;2.50;;;15.40;70.60;;;;;;5007590;28;20095;-95
2021/05/06 11:28:36;;;;;;;4.30;2.60;;;15.40;70.60;;;;;;4999763;28;20038;-94
2021/05/06 11:31:02;;;;;;;5.05;2.97;;;15.50;70.30;;;;;;5000693;28;20025;-94
2021/05/06 11:33:29;;;;;;;4.38;2.80;;;15.50;70.50;;;;;;5004673;28;20030;-92
2021/05/06 11:36:12;;;;;;;4.32;3.10;;;15.50;70.50;;;;;;5025270;28;20026;-93
2021/05/06 11:38:44;;;;;;;6.88;3.17;;;15.50;70.70;;;;;;5022337;28;20032;-93
2021/05/06 11:41:12;;;;;;;5.75;2.70;;;15.50;70.90;;;;;;5006069;28;20052;-93
2021/05/06 11:43:55;;;;;;;4.43;3.15;;;15.50;70.70;;;;;;5005872;28;20026;-89
2021/05/06 11:46:28;;;;;;;5.28;3.10;;;15.50;70.90;;;;;;5000791;28;20342;-92
2021/05/06 11:48:54;;;;;;;6.70;3.22;;;15.40;70.80;;;;;;4999721;28;20057;-90
2021/05/06 11:51:37;;;;;;;4.97;3.30;;;15.30;70.80;;;;;;4999665;28;20461;-92
2021/05/06 11:54:07;;;;;;;4.78;2.90;;;15.30;71.20;;;;;;5002629;28;20036;-94
2021/05/06 11:56:34;;;;;;;4.03;2.55;;;15.20;70.70;;;;;;5003862;28;20040;-93
2021/05/06 11:59:00;;;;;;;3.10;2.20;;;15.20;70.70;;;;;;5015294;28;20113;-94
2021/05/06 12:01:27;;;;;;;4.68;2.75;;;15.30;70.70;;;;;;5015461;28;20468;-94
2021/05/06 12:03:54;;;;;;;5.88;2.80;;;15.30;70.40;;;;;;4998621;28;20032;-95
2021/05/06 12:06:49;;;;;;;7.63;3.78;;;15.30;70.20;;;;;;5004498;28;20542;-92
2021/05/06 12:09:23;;;;;;;9.73;4.93;;;15.30;70.40;;;;;;4998809;28;20033;-95
2021/05/06 12:12:09;;;;;;;7.57;4.22;;;15.40;70.00;;;;;;5019481;28;20149;-96
2021/05/06 12:14:37;;;;;;;8.23;4.57;;;15.30;69.50;;;;;;4988990;28;20045;-96
2021/05/06 12:17:08;;;;;;;6.00;3.80;;;15.30;69.40;;;;;;5006282;28;20026;-95
2021/05/06 12:20:09;;;;;;;4.22;3.20;;;15.30;69.20;;;;;;5174574;23;20147;-96
2021/05/06 12:25:08;;;;;;;3.53;2.53;;;15.30;68.60;;;;;;5163626;23;20055;-96
2021/05/06 12:27:36;;;;;;;5.22;2.97;;;15.40;68.20;;;;;;5346905;23;20048;-96
2021/05/06 12:32:46;;;;;;;3.47;2.65;;;15.50;67.80;;;;;;5444141;23;20076;-95
2021/05/06 12:35:12;;;;;;;3.85;2.60;;;15.50;67.80;;;;;;5037883;28;20061;-95
2021/05/06 12:37:47;;;;;;;2.80;2.40;;;15.60;67.70;;;;;;5042943;28;20029;-96
2021/05/06 12:40:17;;;;;;;2.92;2.50;;;15.70;67.80;;;;;;5018431;28;20120;-96
2021/05/06 12:42:43;;;;;;;3.05;2.40;;;15.70;67.50;;;;;;5011222;28;20036;-96
2021/05/06 12:45:23;;;;;;;3.05;2.50;;;15.60;67.30;;;;;;5033907;28;20041;-96
2021/05/06 12:47:50;;;;;;;3.10;2.42;;;15.50;67.10;;;;;;5026917;28;20461;-95
2021/05/06 12:50:28;;;;;;;3.75;2.20;;;15.50;67.10;;;;;;5004698;28;20030;-93
2021/05/06 12:53:08;;;;;;;2.42;2.20;;;15.40;67.40;;;;;;5020141;28;20026;-94
2021/05/06 12:55:39;;;;;;;10.15;6.63;;;15.30;67.40;;;;;;5034656;28;20036;-90
2021/05/06 12:58:20;;;;;;;;;;;15.30;67.40;;;;;;5034801;28;20030;-91
2021/05/06 13:00:54;;;;;;;6.28;4.40;;;15.30;68.40;;;;;;5033562;28;19905;-83
2021/05/06 13:03:28;;;;;;;5.80;4.10;;;15.30;67.30;;;;;;5016351;28;20029;-91
2021/05/06 13:05:54;;;;;;;5.13;3.55;;;15.30;67.20;;;;;;5033560;28;20596;-93
2021/05/06 13:08:37;;;;;;;4.78;3.70;;;15.30;67.20;;;;;;5032913;28;20084;-90
2021/05/06 13:11:05;;;;;;;4.15;3.30;;;15.30;67.30;;;;;;5013160;28;20104;-91
2021/05/06 13:13:40;;;;;;;3.53;2.75;;;15.30;67.40;;;;;;5032860;28;20072;-90
2021/05/06 13:16:08;;;;;;;4.03;2.78;;;15.20;67.30;;;;;;5031065;28;20018;-91
2021/05/06 13:18:37;;;;;;;7.03;4.03;;;15.20;67.50;;;;;;5015260;28;20037;-92
2021/05/06 13:21:05;;;;;;;7.90;4.30;;;15.20;67.50;;;;;;5012680;28;20029;-92
2021/05/06 13:23:33;;;;;;;8.23;4.45;;;15.20;67.50;;;;;;5015302;28;20021;-92
2021/05/06 13:26:06;;;;;;;6.43;3.50;;;15.30;67.60;;;;;;5015306;28;20026;-92
2021/05/06 13:28:32;;;;;;;4.65;3.00;;;15.30;67.40;;;;;;5033305;28;20075;-93
2021/05/06 13:31:33;;;;;;;5.00;2.80;;;15.30;67.20;;;;;;5015667;28;20365;-92
2021/05/06 13:34:15;;;;;;;5.50;2.80;;;15.30;67.10;;;;;;5008217;28;20476;-93
2021/05/06 13:37:06;;;;;;;3.20;2.20;;;15.40;66.80;;;;;;5016310;28;20151;-92
2021/05/06 13:39:33;;;;;;;2.83;2.05;;;15.30;66.80;;;;;;5031950;28;20021;-91
2021/05/06 13:42:00;;;;;;;3.38;2.13;;;15.30;66.50;;;;;;5015331;28;20040;-92
2021/05/06 13:44:29;;;;;;;2.28;1.90;;;15.30;66.50;;;;;;5016840;28;20021;-93
2021/05/06 13:46:57;;;;;;;2.40;1.90;;;15.40;66.40;;;;;;5016241;28;20472;-93
2021/05/06 13:49:29;;;;;;;2.33;2.05;;;15.40;66.30;;;;;;5015452;28;20021;-92
2021/05/06 13:52:15;;;;;;;2.60;1.95;;;15.40;66.30;;;;;;5017329;28;20025;-89
2021/05/06 13:54:45;;;;;;;3.40;2.20;;;15.40;66.40;;;;;;5018616;28;20520;-89
2021/05/06 13:57:10;;;;;;;3.70;2.10;;;15.40;66.40;;;;;;5015202;28;20045;-88
2021/05/06 13:59:36;;;;;;;2.75;2.30;;;15.50;66.30;;;;;;5033429;28;20435;-86
2021/05/06 14:02:02;;;;;;;4.05;2.00;;;15.50;66.20;;;;;;5021427;28;20032;-87
2021/05/06 14:04:28;;;;;;;2.58;1.95;;;15.60;66.10;;;;;;5041903;28;20017;-86
2021/05/06 14:06:54;;;;;;;3.20;2.28;;;15.60;66.10;;;;;;5034941;28;20132;-90
2021/05/06 14:09:25;;;;;;;17.70;12.05;;;15.60;65.90;;;;;;5022923;28;20120;-93
2021/05/06 14:11:51;;;;;;;8.10;5.70;;;15.60;65.70;;;;;;5018232;28;20024;-89
2021/05/06 14:14:21;;;;;;;8.15;4.10;;;15.70;65.40;;;;;;5018137;28;20045;-91
2021/05/06 14:16:49;;;;;;;5.03;3.50;;;15.90;65.40;;;;;;5017797;28;20014;-91
2021/05/06 14:19:21;;;;;;;4.03;2.88;;;16.10;65.50;;;;;;5036630;28;20025;-88
2021/05/06 14:21:48;;;;;;;3.97;2.80;;;16.40;65.50;;;;;;5017483;28;20037;-94
2021/05/06 14:24:17;;;;;;;3.88;2.63;;;17.00;66.60;;;;;;5019448;28;20029;-87
2021/05/06 14:26:46;;;;;;;4.00;2.35;;;17.80;65.20;;;;;;5036671;28;20383;-94
2021/05/06 14:29:14;;;;;;;3.03;2.20;;;18.50;63.70;;;;;;5018333;28;20087;-92
2021/05/06 14:31:40;;;;;;;3.85;2.38;;;19.20;62.60;;;;;;5035886;28;20026;-90
2021/05/06 14:34:06;;;;;;;2.58;1.88;;;19.80;60.30;;;;;;5018005;28;20467;-89
2021/05/06 14:36:34;;;;;;;2.75;1.65;;;20.30;59.10;;;;;;5037415;28;20030;-92
2021/05/06 14:39:02;;;;;;;2.42;1.92;;;20.50;58.60;;;;;;5038612;28;20029;-93
2021/05/06 14:41:29;;;;;;;9.45;4.80;;;20.60;58.30;;;;;;5020762;28;20040;-90
2021/05/06 14:43:54;;;;;;;5.10;3.00;;;20.70;58.10;;;;;;5037719;28;20033;-93
2021/05/06 14:46:21;;;;;;;3.60;2.20;;;21.00;58.60;;;;;;5026691;28;20037;-91
2021/05/06 14:48:47;;;;;;;2.28;1.83;;;21.70;58.50;;;;;;5046168;28;20053;-93
2021/05/06 14:51:13;;;;;;;2.58;1.70;;;22.60;57.30;;;;;;5039399;28;20017;-94
2021/05/06 14:53:39;;;;;;;1.55;1.45;;;23.30;55.60;;;;;;5023942;28;20037;-95
2021/05/06 14:56:05;;;;;;;1.80;1.30;;;23.80;54.20;;;;;;5039007;28;20041;-93
2021/05/06 14:58:31;;;;;;;2.28;0.98;;;24.20;53.30;;;;;;5038740;28;20029;-91
2021/05/06 15:00:58;;;;;;;1.55;1.13;;;24.60;51.90;;;;;;5019595;28;20071;-92
2021/05/06 15:03:24;;;;;;;1.30;1.00;;;24.80;50.90;;;;;;5022873;28;20030;-95
2021/05/06 15:05:49;;;;;;;1.42;1.00;;;25.00;50.10;;;;;;5021604;28;20022;-91
2021/05/06 15:08:17;;;;;;;0.75;0.70;;;25.20;49.50;;;;;;5022886;28;20059;-96
2021/05/06 15:10:43;;;;;;;1.30;0.90;;;25.30;49.00;;;;;;5022267;28;20039;-94
2021/05/06 15:13:09;;;;;;;1.13;0.82;;;25.30;48.40;;;;;;5020129;28;20155;-92
2021/05/06 15:15:35;;;;;;;0.75;0.75;;;25.40;47.90;;;;;;5017569;28;20080;-94
2021/05/06 15:18:00;;;;;;;11.43;8.38;;;25.30;47.20;;;;;;5017343;28;20398;-90
2021/05/06 15:20:26;;;;;;;5.20;3.90;;;25.30;47.00;;;;;;5018651;28;20087;-91
2021/05/06 15:22:54;;;;;;;4.28;2.78;;;25.30;46.30;;;;;;5019994;28;20032;-90
2021/05/06 15:25:23;;;;;;;2.40;2.10;;;25.30;46.00;;;;;;5018504;28;20021;-87
2021/05/06 15:27:49;;;;;;;2.35;1.48;;;25.20;45.70;;;;;;5039352;28;20043;-91
2021/05/06 15:30:17;;;;;;;1.65;1.30;;;25.00;44.90;;;;;;5022055;28;20456;-93
2021/05/06 15:32:44;;;;;;;3.17;1.50;;;24.60;45.10;;;;;;5022879;28;20053;-95
2021/05/06 15:35:10;;;;;;;2.13;1.67;;;24.30;45.10;;;;;;5027747;28;20116;-92
2021/05/06 15:37:36;;;;;;;2.05;1.42;;;23.90;44.90;;;;;;5023941;28;20033;-92
2021/05/06 15:40:07;;;;;;;2.28;1.45;;;23.40;45.10;;;;;;5037784;28;20026;-86
2021/05/06 15:42:33;;;;;;;8.32;7.43;;;23.10;45.00;;;;;;5019832;28;20037;-95
2021/05/06 15:45:00;;;;;;;7.03;5.00;;;23.00;45.60;;;;;;5010031;28;20026;-92
2021/05/06 15:47:25;;;;;;;4.95;2.80;;;22.90;45.50;;;;;;5005824;28;20046;-94
2021/05/06 15:50:03;;;;;;;2.63;2.05;;;22.40;45.40;;;;;;5024153;28;20044;-93
2021/05/06 15:52:28;;;;;;;2.22;1.60;;;21.60;45.70;;;;;;5039935;28;20028;-92
2021/05/06 15:54:54;;;;;;;2.45;1.70;;;20.80;46.50;;;;;;5003383;28;20144;-93
2021/05/06 15:57:20;;;;;;;1.80;1.27;;;20.10;47.00;;;;;;5004679;28;20076;-93
2021/05/06 15:59:45;;;;;;;1.13;0.93;;;19.50;47.40;;;;;;5027998;28;20054;-85
2021/05/06 16:02:14;;;;;;;1.02;0.90;;;19.00;47.60;;;;;;5035604;28;20033;-86
2021/05/06 16:45:10;;;;;;;0.70;0.57;;;15.60;51.10;;;;;;5502929;23;20897;-89
2021/05/06 16:50:22;;;;;;;0.50;0.50;;;15.40;50.80;;;;;;5324744;23;20284;-93
2021/05/06 16:52:48;;;;;;;1.23;0.73;;;15.20;51.00;;;;;;4995046;28;20030;-93
2021/05/06 16:55:16;;;;;;;0.77;0.70;;;15.10;51.00;;;;;;5007386;28;20018;-94
2021/05/06 16:57:45;;;;;;;0.85;0.80;;;15.00;51.30;;;;;;5008036;28;20041;-92
2021/05/06 17:00:12;;;;;;;1.00;0.80;;;14.80;51.40;;;;;;5005477;28;20107;-93
2021/05/06 17:02:39;;;;;;;3.03;1.30;;;14.70;51.70;;;;;;5061460;23;20225;-91
2021/05/06 17:05:18;;;;;;;2.28;1.50;;;14.50;51.90;;;;;;5032403;28;20081;-88
2021/05/06 17:07:45;;;;;;;4.63;1.50;;;14.40;52.00;;;;;;5023038;28;20040;-86
2021/05/06 17:10:21;;;;;;;2.08;1.40;;;14.30;52.20;;;;;;5017907;28;20460;-85